Lynradar: storm image Ingen tordenbyger registrert..



Vårt webkamera mer informasjon My webcam


Kamera på Foreneset mer informasjon webcam on foreneset


Nedbørsradar  rain snow radar


Besøk vår andre værside:

Alternativ webside

iphone versjon

Nettbrett versjon

Foreneset
verstasjon



Ikke nødvendig med spesiell oppmerksomhet.    Det er ingen advarsler

Nære METAR rapporter

     
ENZV - Stavanger
oppdatert: 29-01-2020 20:50
For det meste skyet  
For det meste skyet  
   Vind: ØSØ 3.1 m/s
Vind: ØSØ 3.1 m/s
Temperatur: 3°C
Wind Chill: 0°C
Duggpunkt: 2°C
Fuktighet: 93%
Barometer: 992 hPa
Skyer: For det meste skyet
Sikt: mer enn 10 km
Skydetaljer: For det meste skyet 883.9 m
ENZV 291950Z 12006KT 9999 BKN029 03/02 Q0992 TEMPO 4000 SHRASN BKN010
ENHD - Haugesund
oppdatert: 29-01-2020 20:50
Få Skyer  
Få Skyer  
   Vind: SSV 3.6 m/s
Vind: SSV 3.6 m/s
Temperatur: 3°C
Wind Chill: -1°C
Duggpunkt: 0°C
Fuktighet: 81%
Barometer: 992 hPa
Skyer: Få Skyer
Sikt: mer enn 10 km
Skydetaljer: Få Skyer 701 m
ENHD 291950Z 20007KT 9999 FEW023 03/M00 Q0992
ENBR - Bergen
oppdatert: 29-01-2020 20:50
Delvis Skyet  
Delvis Skyet  
   Vind: SSØ 4.6 m/s
Vind: SSØ 4.6 m/s
Temperatur: 3°C
Wind Chill: -1°C
Duggpunkt: 3°C
Fuktighet: 100%
Barometer: 991 hPa
Skyer: Delvis Skyet
Sikt: mer enn 10 km
Skydetaljer: Få Skyer 121.9 m,
Delvis Skyet 243.8 m
ENBR 291950Z 15009KT 9999 FEW004 SCT008 03/03 Q0991 TEMPO 2500 SHSNRA BKN008 RMK WIND 1200FT 16011KT
ENCN - Kristiansand
oppdatert: 29-01-2020 20:50
Få Skyer  
Få Skyer  
   Vind: VSV 1.5 m/s
Vind: VSV 1.5 m/s
Temperatur: 2°C
Wind Chill: 1°C
Duggpunkt: 1°C
Fuktighet: 93%
Barometer: 994 hPa
Skyer: Få Skyer
Sikt: mer enn 10 km
Skydetaljer: Få Skyer 609.6 m
ENCN 291950Z 25003KT 9999 FEW020 02/01 Q0994
ENGM - Oslo
oppdatert: 29-01-2020 20:50
For det meste skyet  
For det meste skyet  
   Vind: SSV 1 m/s
Vind: SSV 1 m/s
Temperatur: 0°C
Duggpunkt: 0°C
Fuktighet: 100%
Barometer: 990 hPa
Skyer: For det meste skyet
Sikt: 9 km
Skydetaljer: Få Skyer 61 m,
For det meste skyet 396.2 m
ENGM 291950Z 20002KT 9000 4000NE FEW002 BKN013 00/00 Q0990 TEMPO 0500 FZFG VV001
ENVA - Trondheim
oppdatert: 29-01-2020 20:50
Delvis Skyet  
Delvis Skyet  
   Vind: Øst 5.1 m/s
Vind: Øst 5.1 m/s
Temperatur: 2°C
Wind Chill: -2°C
Duggpunkt: -5°C
Fuktighet: 60%
Barometer: 991 hPa
Skyer: Delvis Skyet
Sikt: mer enn 10 km
Skydetaljer: Få Skyer 1524 m,
Delvis Skyet 2499.4 m
ENVA 291950Z 09010KT 9999 FEW050 SCT082 02/M05 Q0991 NOSIG RMK WIND 670FT 12012KT
    

Script utviklet av  Saratoga-weather.org Tilrettelagt for malen av  Weerstation Leuven

Du finner vår vær info også på:

UK Metoffice

European Weather Network

WeatherCloud

Weather Underground

Utstyr vi bruker:

Værstsjon
Davis VP2

Værprogram
Weather Display

Davis VP2

Weather Display